sensor_id;sensor_type;location;lat;lon;timestamp;P1;durP1;ratioP1;P2;durP2;ratioP2
71104;SDS011;58760;48.716;8.962;2023-04-06T00:01:27;14.30;;;7.68;;
71104;SDS011;58760;48.716;8.962;2023-04-06T00:03:52;13.52;;;7.03;;
71104;SDS011;58760;48.716;8.962;2023-04-06T00:06:18;13.25;;;7.25;;
71104;SDS011;58760;48.716;8.962;2023-04-06T00:08:43;13.00;;;7.05;;
71104;SDS011;58760;48.716;8.962;2023-04-06T00:11:09;12.52;;;6.90;;
71104;SDS011;58760;48.716;8.962;2023-04-06T00:13:35;11.15;;;6.10;;
71104;SDS011;58760;48.716;8.962;2023-04-06T00:16:00;14.13;;;7.72;;
71104;SDS011;58760;48.716;8.962;2023-04-06T00:18:26;14.63;;;7.35;;
71104;SDS011;58760;48.716;8.962;2023-04-06T00:20:51;14.20;;;7.35;;
71104;SDS011;58760;48.716;8.962;2023-04-06T00:23:17;10.30;;;6.75;;
71104;SDS011;58760;48.716;8.962;2023-04-06T00:25:42;12.25;;;6.93;;
71104;SDS011;58760;48.716;8.962;2023-04-06T00:28:08;11.40;;;6.45;;
71104;SDS011;58760;48.716;8.962;2023-04-06T00:30:33;12.13;;;7.00;;
71104;SDS011;58760;48.716;8.962;2023-04-06T00:32:58;15.23;;;6.93;;
71104;SDS011;58760;48.716;8.962;2023-04-06T00:35:24;13.27;;;6.70;;
71104;SDS011;58760;48.716;8.962;2023-04-06T00:37:49;13.90;;;6.97;;
71104;SDS011;58760;48.716;8.962;2023-04-06T00:40:15;12.80;;;6.85;;
71104;SDS011;58760;48.716;8.962;2023-04-06T00:42:41;14.27;;;7.35;;
71104;SDS011;58760;48.716;8.962;2023-04-06T00:45:07;11.93;;;6.75;;
71104;SDS011;58760;48.716;8.962;2023-04-06T00:47:33;15.52;;;7.85;;
71104;SDS011;58760;48.716;8.962;2023-04-06T00:49:58;12.95;;;7.40;;
71104;SDS011;58760;48.716;8.962;2023-04-06T00:52:24;11.75;;;6.88;;
71104;SDS011;58760;48.716;8.962;2023-04-06T00:54:50;12.50;;;7.05;;
71104;SDS011;58760;48.716;8.962;2023-04-06T00:57:15;13.25;;;7.03;;
71104;SDS011;58760;48.716;8.962;2023-04-06T00:59:41;12.50;;;6.90;;
71104;SDS011;58760;48.716;8.962;2023-04-06T01:02:07;13.10;;;7.65;;
71104;SDS011;58760;48.716;8.962;2023-04-06T01:04:33;12.30;;;7.07;;
71104;SDS011;58760;48.716;8.962;2023-04-06T01:06:59;15.38;;;7.00;;
71104;SDS011;58760;48.716;8.962;2023-04-06T01:09:27;11.18;;;6.65;;
71104;SDS011;58760;48.716;8.962;2023-04-06T01:11:54;14.25;;;7.00;;
71104;SDS011;58760;48.716;8.962;2023-04-06T01:14:20;12.45;;;6.63;;
71104;SDS011;58760;48.716;8.962;2023-04-06T01:16:46;11.07;;;6.53;;
71104;SDS011;58760;48.716;8.962;2023-04-06T01:19:11;10.48;;;6.55;;
71104;SDS011;58760;48.716;8.962;2023-04-06T01:21:37;13.23;;;6.70;;
71104;SDS011;58760;48.716;8.962;2023-04-06T01:24:04;14.73;;;7.25;;
71104;SDS011;58760;48.716;8.962;2023-04-06T01:26:30;10.75;;;5.70;;
71104;SDS011;58760;48.716;8.962;2023-04-06T01:28:56;12.48;;;6.32;;
71104;SDS011;58760;48.716;8.962;2023-04-06T01:31:22;11.68;;;6.47;;
71104;SDS011;58760;48.716;8.962;2023-04-06T01:33:47;11.02;;;6.57;;
71104;SDS011;58760;48.716;8.962;2023-04-06T01:36:13;11.45;;;6.50;;
71104;SDS011;58760;48.716;8.962;2023-04-06T01:38:39;10.35;;;5.97;;
71104;SDS011;58760;48.716;8.962;2023-04-06T01:41:06;12.55;;;6.53;;
71104;SDS011;58760;48.716;8.962;2023-04-06T01:43:32;10.98;;;6.15;;
71104;SDS011;58760;48.716;8.962;2023-04-06T01:45:57;11.75;;;6.05;;
71104;SDS011;58760;48.716;8.962;2023-04-06T01:48:23;10.48;;;5.70;;
71104;SDS011;58760;48.716;8.962;2023-04-06T01:50:48;14.13;;;6.10;;
71104;SDS011;58760;48.716;8.962;2023-04-06T01:53:13;13.18;;;5.88;;
71104;SDS011;58760;48.716;8.962;2023-04-06T01:55:39;11.88;;;5.93;;
71104;SDS011;58760;48.716;8.962;2023-04-06T01:58:05;11.23;;;6.05;;
71104;SDS011;58760;48.716;8.962;2023-04-06T02:00:30;12.27;;;6.22;;
71104;SDS011;58760;48.716;8.962;2023-04-06T02:02:55;14.07;;;6.00;;
71104;SDS011;58760;48.716;8.962;2023-04-06T02:05:21;10.07;;;6.13;;
71104;SDS011;58760;48.716;8.962;2023-04-06T02:07:46;10.45;;;6.03;;
71104;SDS011;58760;48.716;8.962;2023-04-06T02:10:12;12.63;;;6.55;;
71104;SDS011;58760;48.716;8.962;2023-04-06T02:12:39;13.60;;;6.60;;
71104;SDS011;58760;48.716;8.962;2023-04-06T02:15:04;11.45;;;6.65;;
71104;SDS011;58760;48.716;8.962;2023-04-06T02:17:30;11.75;;;6.45;;
71104;SDS011;58760;48.716;8.962;2023-04-06T02:19:55;12.07;;;6.43;;
71104;SDS011;58760;48.716;8.962;2023-04-06T02:22:21;13.35;;;7.72;;
71104;SDS011;58760;48.716;8.962;2023-04-06T02:24:47;10.48;;;6.20;;
71104;SDS011;58760;48.716;8.962;2023-04-06T02:27:13;10.95;;;6.40;;
71104;SDS011;58760;48.716;8.962;2023-04-06T02:29:39;13.18;;;5.75;;
71104;SDS011;58760;48.716;8.962;2023-04-06T02:32:07;11.25;;;6.05;;
71104;SDS011;58760;48.716;8.962;2023-04-06T02:34:33;13.20;;;6.45;;
71104;SDS011;58760;48.716;8.962;2023-04-06T02:36:58;11.18;;;6.13;;
71104;SDS011;58760;48.716;8.962;2023-04-06T02:39:24;11.50;;;6.25;;
71104;SDS011;58760;48.716;8.962;2023-04-06T02:41:49;12.50;;;6.07;;
71104;SDS011;58760;48.716;8.962;2023-04-06T02:44:15;14.90;;;6.68;;
71104;SDS011;58760;48.716;8.962;2023-04-06T02:46:40;10.48;;;5.80;;
71104;SDS011;58760;48.716;8.962;2023-04-06T02:49:05;14.93;;;6.30;;
71104;SDS011;58760;48.716;8.962;2023-04-06T02:51:31;11.45;;;5.78;;
71104;SDS011;58760;48.716;8.962;2023-04-06T02:53:57;10.43;;;6.15;;
71104;SDS011;58760;48.716;8.962;2023-04-06T02:56:23;10.95;;;5.82;;
71104;SDS011;58760;48.716;8.962;2023-04-06T02:58:48;13.60;;;6.65;;
71104;SDS011;58760;48.716;8.962;2023-04-06T03:01:14;10.43;;;5.72;;
71104;SDS011;58760;48.716;8.962;2023-04-06T03:03:40;10.93;;;6.28;;
71104;SDS011;58760;48.716;8.962;2023-04-06T03:06:05;11.38;;;6.07;;
71104;SDS011;58760;48.716;8.962;2023-04-06T03:08:31;11.52;;;5.93;;
71104;SDS011;58760;48.716;8.962;2023-04-06T03:10:56;14.38;;;6.60;;
71104;SDS011;58760;48.716;8.962;2023-04-06T03:13:21;12.07;;;6.43;;
71104;SDS011;58760;48.716;8.962;2023-04-06T03:15:47;15.13;;;6.65;;
71104;SDS011;58760;48.716;8.962;2023-04-06T03:18:12;11.18;;;6.47;;
71104;SDS011;58760;48.716;8.962;2023-04-06T03:20:37;10.80;;;6.45;;
71104;SDS011;58760;48.716;8.962;2023-04-06T03:23:03;12.65;;;6.30;;
71104;SDS011;58760;48.716;8.962;2023-04-06T03:25:28;11.23;;;6.10;;
71104;SDS011;58760;48.716;8.962;2023-04-06T03:27:55;12.45;;;7.00;;
71104;SDS011;58760;48.716;8.962;2023-04-06T03:30:21;11.60;;;6.60;;
71104;SDS011;58760;48.716;8.962;2023-04-06T03:32:46;13.25;;;6.28;;
71104;SDS011;58760;48.716;8.962;2023-04-06T03:35:12;11.45;;;6.70;;
71104;SDS011;58760;48.716;8.962;2023-04-06T03:37:37;10.43;;;6.10;;
71104;SDS011;58760;48.716;8.962;2023-04-06T03:40:03;11.88;;;6.70;;
71104;SDS011;58760;48.716;8.962;2023-04-06T03:42:29;11.52;;;6.10;;
71104;SDS011;58760;48.716;8.962;2023-04-06T03:44:55;14.15;;;7.00;;
71104;SDS011;58760;48.716;8.962;2023-04-06T03:47:21;14.30;;;6.57;;
71104;SDS011;58760;48.716;8.962;2023-04-06T03:49:46;10.80;;;6.30;;
71104;SDS011;58760;48.716;8.962;2023-04-06T03:52:12;11.25;;;6.20;;
71104;SDS011;58760;48.716;8.962;2023-04-06T03:54:37;12.45;;;6.10;;
71104;SDS011;58760;48.716;8.962;2023-04-06T03:57:03;13.40;;;6.75;;
71104;SDS011;58760;48.716;8.962;2023-04-06T03:59:29;11.15;;;5.88;;
71104;SDS011;58760;48.716;8.962;2023-04-06T04:01:54;10.95;;;5.85;;
71104;SDS011;58760;48.716;8.962;2023-04-06T04:04:20;13.15;;;6.13;;
71104;SDS011;58760;48.716;8.962;2023-04-06T04:06:45;12.02;;;6.05;;
71104;SDS011;58760;48.716;8.962;2023-04-06T04:09:11;11.30;;;6.03;;
71104;SDS011;58760;48.716;8.962;2023-04-06T04:11:36;11.23;;;5.90;;
71104;SDS011;58760;48.716;8.962;2023-04-06T04:14:02;12.98;;;5.88;;
71104;SDS011;58760;48.716;8.962;2023-04-06T04:16:27;11.25;;;5.70;;
71104;SDS011;58760;48.716;8.962;2023-04-06T04:18:52;12.20;;;5.88;;
71104;SDS011;58760;48.716;8.962;2023-04-06T04:21:18;11.05;;;5.78;;
71104;SDS011;58760;48.716;8.962;2023-04-06T04:23:43;14.02;;;6.28;;
71104;SDS011;58760;48.716;8.962;2023-04-06T04:26:09;10.93;;;5.75;;
71104;SDS011;58760;48.716;8.962;2023-04-06T04:28:35;11.43;;;5.82;;
71104;SDS011;58760;48.716;8.962;2023-04-06T04:31:00;13.57;;;6.05;;
71104;SDS011;58760;48.716;8.962;2023-04-06T04:33:25;13.63;;;6.10;;
71104;SDS011;58760;48.716;8.962;2023-04-06T04:35:51;12.02;;;5.90;;
71104;SDS011;58760;48.716;8.962;2023-04-06T04:38:16;10.52;;;5.80;;
71104;SDS011;58760;48.716;8.962;2023-04-06T04:40:42;11.93;;;5.63;;
71104;SDS011;58760;48.716;8.962;2023-04-06T04:43:07;10.82;;;6.07;;
71104;SDS011;58760;48.716;8.962;2023-04-06T04:45:32;10.70;;;5.97;;
71104;SDS011;58760;48.716;8.962;2023-04-06T04:47:58;10.88;;;5.75;;
71104;SDS011;58760;48.716;8.962;2023-04-06T04:50:23;10.18;;;5.25;;
71104;SDS011;58760;48.716;8.962;2023-04-06T04:52:49;13.23;;;5.60;;
71104;SDS011;58760;48.716;8.962;2023-04-06T04:55:14;11.32;;;6.15;;
71104;SDS011;58760;48.716;8.962;2023-04-06T04:57:40;11.02;;;6.15;;
71104;SDS011;58760;48.716;8.962;2023-04-06T05:00:06;11.85;;;6.07;;
71104;SDS011;58760;48.716;8.962;2023-04-06T05:02:31;12.43;;;5.88;;
71104;SDS011;58760;48.716;8.962;2023-04-06T05:04:57;10.10;;;5.70;;
71104;SDS011;58760;48.716;8.962;2023-04-06T05:07:23;11.75;;;6.03;;
71104;SDS011;58760;48.716;8.962;2023-04-06T05:09:48;11.88;;;6.63;;
71104;SDS011;58760;48.716;8.962;2023-04-06T05:12:14;12.30;;;5.95;;
71104;SDS011;58760;48.716;8.962;2023-04-06T05:14:39;10.57;;;5.70;;
71104;SDS011;58760;48.716;8.962;2023-04-06T05:17:05;11.68;;;6.00;;
71104;SDS011;58760;48.716;8.962;2023-04-06T05:19:30;11.45;;;6.07;;
71104;SDS011;58760;48.716;8.962;2023-04-06T05:21:56;10.55;;;6.05;;
71104;SDS011;58760;48.716;8.962;2023-04-06T05:24:21;12.43;;;7.00;;
71104;SDS011;58760;48.716;8.962;2023-04-06T05:26:47;10.57;;;6.10;;
71104;SDS011;58760;48.716;8.962;2023-04-06T05:29:13;11.60;;;6.20;;
71104;SDS011;58760;48.716;8.962;2023-04-06T05:31:40;11.90;;;6.90;;
71104;SDS011;58760;48.716;8.962;2023-04-06T05:34:05;15.35;;;6.75;;
71104;SDS011;58760;48.716;8.962;2023-04-06T05:36:31;10.65;;;6.10;;
71104;SDS011;58760;48.716;8.962;2023-04-06T05:38:57;11.52;;;5.75;;
71104;SDS011;58760;48.716;8.962;2023-04-06T05:41:23;13.20;;;6.65;;
71104;SDS011;58760;48.716;8.962;2023-04-06T05:43:49;12.93;;;7.38;;
71104;SDS011;58760;48.716;8.962;2023-04-06T05:46:15;15.73;;;7.47;;
71104;SDS011;58760;48.716;8.962;2023-04-06T05:48:40;12.10;;;6.88;;
71104;SDS011;58760;48.716;8.962;2023-04-06T05:51:05;14.70;;;8.10;;
71104;SDS011;58760;48.716;8.962;2023-04-06T05:53:31;17.90;;;7.75;;
71104;SDS011;58760;48.716;8.962;2023-04-06T05:55:57;15.68;;;7.78;;
71104;SDS011;58760;48.716;8.962;2023-04-06T05:58:25;13.55;;;7.60;;
71104;SDS011;58760;48.716;8.962;2023-04-06T06:00:55;14.68;;;7.78;;
71104;SDS011;58760;48.716;8.962;2023-04-06T06:03:21;12.77;;;7.55;;
71104;SDS011;58760;48.716;8.962;2023-04-06T06:05:47;17.50;;;7.68;;
71104;SDS011;58760;48.716;8.962;2023-04-06T06:08:13;15.65;;;7.53;;
71104;SDS011;58760;48.716;8.962;2023-04-06T06:10:38;12.10;;;6.90;;
71104;SDS011;58760;48.716;8.962;2023-04-06T06:13:05;14.15;;;7.50;;
71104;SDS011;58760;48.716;8.962;2023-04-06T06:15:30;15.05;;;7.75;;
71104;SDS011;58760;48.716;8.962;2023-04-06T06:17:55;13.70;;;7.50;;
71104;SDS011;58760;48.716;8.962;2023-04-06T06:20:21;14.40;;;7.50;;
71104;SDS011;58760;48.716;8.962;2023-04-06T06:22:47;15.82;;;7.80;;
71104;SDS011;58760;48.716;8.962;2023-04-06T06:25:12;12.27;;;7.05;;
71104;SDS011;58760;48.716;8.962;2023-04-06T06:27:38;13.93;;;7.90;;
71104;SDS011;58760;48.716;8.962;2023-04-06T06:30:03;13.93;;;7.93;;
71104;SDS011;58760;48.716;8.962;2023-04-06T06:32:29;12.95;;;7.63;;
71104;SDS011;58760;48.716;8.962;2023-04-06T06:34:55;14.55;;;7.50;;
71104;SDS011;58760;48.716;8.962;2023-04-06T06:37:20;13.18;;;7.90;;
71104;SDS011;58760;48.716;8.962;2023-04-06T06:39:46;14.15;;;7.80;;
71104;SDS011;58760;48.716;8.962;2023-04-06T06:42:11;12.50;;;7.38;;
71104;SDS011;58760;48.716;8.962;2023-04-06T06:44:36;13.32;;;7.82;;
71104;SDS011;58760;48.716;8.962;2023-04-06T06:47:02;15.15;;;8.00;;
71104;SDS011;58760;48.716;8.962;2023-04-06T06:49:27;12.75;;;7.90;;
71104;SDS011;58760;48.716;8.962;2023-04-06T06:51:53;14.10;;;8.10;;
71104;SDS011;58760;48.716;8.962;2023-04-06T06:54:18;14.20;;;7.47;;
71104;SDS011;58760;48.716;8.962;2023-04-06T06:56:44;13.57;;;7.32;;
71104;SDS011;58760;48.716;8.962;2023-04-06T06:59:09;14.65;;;7.78;;
71104;SDS011;58760;48.716;8.962;2023-04-06T07:01:35;12.10;;;7.10;;
71104;SDS011;58760;48.716;8.962;2023-04-06T07:04:01;18.30;;;7.88;;
71104;SDS011;58760;48.716;8.962;2023-04-06T07:06:26;15.95;;;8.25;;
71104;SDS011;58760;48.716;8.962;2023-04-06T07:08:52;13.00;;;7.90;;
71104;SDS011;58760;48.716;8.962;2023-04-06T07:11:17;14.05;;;8.30;;
71104;SDS011;58760;48.716;8.962;2023-04-06T07:13:43;14.20;;;8.60;;
71104;SDS011;58760;48.716;8.962;2023-04-06T07:16:08;14.68;;;8.85;;
71104;SDS011;58760;48.716;8.962;2023-04-06T07:18:34;13.77;;;7.90;;
71104;SDS011;58760;48.716;8.962;2023-04-06T07:20:59;13.48;;;7.65;;
71104;SDS011;58760;48.716;8.962;2023-04-06T07:23:25;14.73;;;7.88;;
71104;SDS011;58760;48.716;8.962;2023-04-06T07:25:50;19.83;;;8.23;;
71104;SDS011;58760;48.716;8.962;2023-04-06T07:28:17;15.38;;;8.23;;
71104;SDS011;58760;48.716;8.962;2023-04-06T07:30:42;14.32;;;7.63;;
71104;SDS011;58760;48.716;8.962;2023-04-06T07:33:08;13.10;;;7.57;;
71104;SDS011;58760;48.716;8.962;2023-04-06T07:35:34;15.90;;;7.93;;
71104;SDS011;58760;48.716;8.962;2023-04-06T07:38:00;13.23;;;7.68;;
71104;SDS011;58760;48.716;8.962;2023-04-06T07:40:25;13.02;;;7.82;;
71104;SDS011;58760;48.716;8.962;2023-04-06T07:42:51;12.52;;;6.82;;
71104;SDS011;58760;48.716;8.962;2023-04-06T07:45:17;13.65;;;7.20;;
71104;SDS011;58760;48.716;8.962;2023-04-06T07:47:43;12.57;;;6.95;;
71104;SDS011;58760;48.716;8.962;2023-04-06T07:50:08;13.57;;;8.07;;
71104;SDS011;58760;48.716;8.962;2023-04-06T07:52:35;11.93;;;7.20;;
71104;SDS011;58760;48.716;8.962;2023-04-06T07:55:00;11.20;;;7.35;;
71104;SDS011;58760;48.716;8.962;2023-04-06T07:57:26;13.73;;;7.60;;
71104;SDS011;58760;48.716;8.962;2023-04-06T07:59:51;11.60;;;7.30;;
71104;SDS011;58760;48.716;8.962;2023-04-06T08:02:17;14.98;;;7.45;;
71104;SDS011;58760;48.716;8.962;2023-04-06T08:04:43;12.85;;;6.50;;
71104;SDS011;58760;48.716;8.962;2023-04-06T08:07:09;13.82;;;7.20;;
71104;SDS011;58760;48.716;8.962;2023-04-06T08:09:35;11.63;;;6.82;;
71104;SDS011;58760;48.716;8.962;2023-04-06T08:12:00;11.85;;;6.63;;
71104;SDS011;58760;48.716;8.962;2023-04-06T08:14:26;13.05;;;7.35;;
71104;SDS011;58760;48.716;8.962;2023-04-06T08:16:51;11.65;;;7.55;;
71104;SDS011;58760;48.716;8.962;2023-04-06T08:19:17;15.25;;;7.35;;
71104;SDS011;58760;48.716;8.962;2023-04-06T08:21:43;12.20;;;6.53;;
71104;SDS011;58760;48.716;8.962;2023-04-06T08:24:10;12.15;;;6.68;;
71104;SDS011;58760;48.716;8.962;2023-04-06T08:26:36;11.90;;;6.53;;
71104;SDS011;58760;48.716;8.962;2023-04-06T08:29:02;13.10;;;6.68;;
71104;SDS011;58760;48.716;8.962;2023-04-06T08:31:29;12.20;;;6.75;;
71104;SDS011;58760;48.716;8.962;2023-04-06T08:33:54;13.48;;;6.40;;
71104;SDS011;58760;48.716;8.962;2023-04-06T08:36:19;12.07;;;6.90;;
71104;SDS011;58760;48.716;8.962;2023-04-06T08:38:47;15.68;;;7.55;;
71104;SDS011;58760;48.716;8.962;2023-04-06T08:41:14;11.52;;;6.15;;
71104;SDS011;58760;48.716;8.962;2023-04-06T08:43:44;12.48;;;6.13;;
71104;SDS011;58760;48.716;8.962;2023-04-06T08:46:13;11.25;;;6.38;;
71104;SDS011;58760;48.716;8.962;2023-04-06T08:48:39;12.77;;;6.38;;
71104;SDS011;58760;48.716;8.962;2023-04-06T08:51:05;10.75;;;5.40;;
71104;SDS011;58760;48.716;8.962;2023-04-06T08:53:31;9.13;;;4.82;;
71104;SDS011;58760;48.716;8.962;2023-04-06T08:55:56;11.18;;;5.40;;
71104;SDS011;58760;48.716;8.962;2023-04-06T08:58:23;9.02;;;4.68;;
71104;SDS011;58760;48.716;8.962;2023-04-06T09:03:16;10.43;;;5.40;;
71104;SDS011;58760;48.716;8.962;2023-04-06T09:08:10;12.90;;;6.75;;
71104;SDS011;58760;48.716;8.962;2023-04-06T09:10:35;11.55;;;5.57;;
71104;SDS011;58760;48.716;8.962;2023-04-06T09:13:07;12.05;;;5.95;;
71104;SDS011;58760;48.716;8.962;2023-04-06T09:15:33;11.38;;;5.60;;
71104;SDS011;58760;48.716;8.962;2023-04-06T09:17:59;12.20;;;5.20;;
71104;SDS011;58760;48.716;8.962;2023-04-06T09:20:25;11.65;;;6.53;;
71104;SDS011;58760;48.716;8.962;2023-04-06T09:22:53;12.63;;;6.70;;
71104;SDS011;58760;48.716;8.962;2023-04-06T09:25:23;13.40;;;6.00;;
71104;SDS011;58760;48.716;8.962;2023-04-06T09:28:01;11.75;;;5.20;;
71104;SDS011;58760;48.716;8.962;2023-04-06T09:30:29;10.95;;;5.63;;
71104;SDS011;58760;48.716;8.962;2023-04-06T09:32:55;13.07;;;5.28;;
71104;SDS011;58760;48.716;8.962;2023-04-06T09:35:22;9.18;;;5.43;;
71104;SDS011;58760;48.716;8.962;2023-04-06T09:37:51;9.35;;;4.97;;
71104;SDS011;58760;48.716;8.962;2023-04-06T09:40:17;9.45;;;4.70;;
71104;SDS011;58760;48.716;8.962;2023-04-06T09:42:46;10.27;;;5.97;;
71104;SDS011;58760;48.716;8.962;2023-04-06T09:45:13;10.68;;;5.07;;
71104;SDS011;58760;48.716;8.962;2023-04-06T09:47:40;9.80;;;5.47;;
71104;SDS011;58760;48.716;8.962;2023-04-06T09:50:10;12.15;;;5.75;;
71104;SDS011;58760;48.716;8.962;2023-04-06T09:52:38;11.13;;;6.03;;
71104;SDS011;58760;48.716;8.962;2023-04-06T09:55:07;10.70;;;4.88;;
71104;SDS011;58760;48.716;8.962;2023-04-06T09:57:37;9.93;;;5.13;;
71104;SDS011;58760;48.716;8.962;2023-04-06T10:00:12;9.23;;;4.90;;
71104;SDS011;58760;48.716;8.962;2023-04-06T10:05:33;10.23;;;5.50;;
71104;SDS011;58760;48.716;8.962;2023-04-06T10:08:05;10.07;;;5.38;;
71104;SDS011;58760;48.716;8.962;2023-04-06T10:10:32;10.93;;;5.28;;
71104;SDS011;58760;48.716;8.962;2023-04-06T10:12:58;9.27;;;5.43;;
71104;SDS011;58760;48.716;8.962;2023-04-06T10:15:23;11.63;;;5.60;;
71104;SDS011;58760;48.716;8.962;2023-04-06T10:17:49;11.63;;;5.40;;
71104;SDS011;58760;48.716;8.962;2023-04-06T10:20:18;11.73;;;5.38;;
71104;SDS011;58760;48.716;8.962;2023-04-06T10:25:55;9.75;;;5.18;;
71104;SDS011;58760;48.716;8.962;2023-04-06T10:28:24;12.18;;;5.07;;
71104;SDS011;58760;48.716;8.962;2023-04-06T10:33:26;9.85;;;5.28;;
71104;SDS011;58760;48.716;8.962;2023-04-06T10:35:53;9.02;;;4.97;;
71104;SDS011;58760;48.716;8.962;2023-04-06T10:38:20;9.20;;;5.30;;
71104;SDS011;58760;48.716;8.962;2023-04-06T10:40:47;9.30;;;5.00;;
71104;SDS011;58760;48.716;8.962;2023-04-06T10:43:20;8.82;;;4.30;;
71104;SDS011;58760;48.716;8.962;2023-04-06T10:45:56;9.52;;;4.70;;
71104;SDS011;58760;48.716;8.962;2023-04-06T10:48:22;9.73;;;4.80;;
71104;SDS011;58760;48.716;8.962;2023-04-06T10:50:50;8.27;;;4.47;;
71104;SDS011;58760;48.716;8.962;2023-04-06T10:53:21;12.60;;;5.05;;
71104;SDS011;58760;48.716;8.962;2023-04-06T10:55:49;8.80;;;4.72;;
71104;SDS011;58760;48.716;8.962;2023-04-06T10:58:15;11.13;;;4.20;;
71104;SDS011;58760;48.716;8.962;2023-04-06T11:00:44;11.75;;;4.63;;
71104;SDS011;58760;48.716;8.962;2023-04-06T11:03:11;8.25;;;4.47;;
71104;SDS011;58760;48.716;8.962;2023-04-06T11:05:36;11.10;;;4.93;;
71104;SDS011;58760;48.716;8.962;2023-04-06T11:08:02;9.55;;;4.13;;
71104;SDS011;58760;48.716;8.962;2023-04-06T11:10:27;10.82;;;4.75;;
71104;SDS011;58760;48.716;8.962;2023-04-06T11:12:55;10.30;;;4.57;;
71104;SDS011;58760;48.716;8.962;2023-04-06T11:15:21;11.13;;;4.32;;
71104;SDS011;58760;48.716;8.962;2023-04-06T11:17:47;9.20;;;3.90;;
71104;SDS011;58760;48.716;8.962;2023-04-06T11:20:14;10.00;;;4.90;;
71104;SDS011;58760;48.716;8.962;2023-04-06T11:22:51;8.40;;;4.32;;
71104;SDS011;58760;48.716;8.962;2023-04-06T11:25:17;9.30;;;4.70;;
71104;SDS011;58760;48.716;8.962;2023-04-06T11:27:43;10.43;;;4.60;;
71104;SDS011;58760;48.716;8.962;2023-04-06T11:30:10;9.10;;;4.65;;
71104;SDS011;58760;48.716;8.962;2023-04-06T11:32:40;7.68;;;4.65;;
71104;SDS011;58760;48.716;8.962;2023-04-06T11:35:07;10.25;;;4.50;;
71104;SDS011;58760;48.716;8.962;2023-04-06T11:37:36;10.02;;;4.40;;
71104;SDS011;58760;48.716;8.962;2023-04-06T11:40:02;8.70;;;4.75;;
71104;SDS011;58760;48.716;8.962;2023-04-06T11:42:28;10.50;;;4.95;;
71104;SDS011;58760;48.716;8.962;2023-04-06T11:44:57;8.88;;;5.15;;
71104;SDS011;58760;48.716;8.962;2023-04-06T11:47:33;8.30;;;4.55;;
71104;SDS011;58760;48.716;8.962;2023-04-06T11:50:13;7.50;;;4.20;;
71104;SDS011;58760;48.716;8.962;2023-04-06T11:52:41;12.52;;;4.93;;
71104;SDS011;58760;48.716;8.962;2023-04-06T11:55:17;7.63;;;4.30;;
71104;SDS011;58760;48.716;8.962;2023-04-06T11:57:43;10.40;;;4.18;;
71104;SDS011;58760;48.716;8.962;2023-04-06T12:02:36;8.25;;;4.32;;
71104;SDS011;58760;48.716;8.962;2023-04-06T12:05:02;8.73;;;4.95;;
71104;SDS011;58760;48.716;8.962;2023-04-06T12:09:54;7.30;;;4.00;;
71104;SDS011;58760;48.716;8.962;2023-04-06T12:12:20;6.65;;;3.22;;
71104;SDS011;58760;48.716;8.962;2023-04-06T12:14:45;6.60;;;3.42;;
71104;SDS011;58760;48.716;8.962;2023-04-06T12:17:11;6.93;;;3.42;;
71104;SDS011;58760;48.716;8.962;2023-04-06T12:19:36;9.95;;;4.05;;
71104;SDS011;58760;48.716;8.962;2023-04-06T12:22:01;8.90;;;3.95;;
71104;SDS011;58760;48.716;8.962;2023-04-06T12:24:27;8.02;;;3.72;;
71104;SDS011;58760;48.716;8.962;2023-04-06T12:29:19;8.88;;;3.28;;
71104;SDS011;58760;48.716;8.962;2023-04-06T12:31:44;7.85;;;4.03;;
71104;SDS011;58760;48.716;8.962;2023-04-06T12:34:10;7.50;;;4.00;;
71104;SDS011;58760;48.716;8.962;2023-04-06T12:36:36;8.05;;;4.22;;
71104;SDS011;58760;48.716;8.962;2023-04-06T12:39:02;7.10;;;3.85;;
71104;SDS011;58760;48.716;8.962;2023-04-06T12:41:28;8.70;;;4.63;;
71104;SDS011;58760;48.716;8.962;2023-04-06T12:43:53;8.00;;;4.35;;
71104;SDS011;58760;48.716;8.962;2023-04-06T12:46:19;7.35;;;3.80;;
71104;SDS011;58760;48.716;8.962;2023-04-06T12:48:45;7.03;;;3.47;;
71104;SDS011;58760;48.716;8.962;2023-04-06T12:51:11;6.15;;;3.63;;
71104;SDS011;58760;48.716;8.962;2023-04-06T12:53:37;8.38;;;3.35;;
71104;SDS011;58760;48.716;8.962;2023-04-06T12:56:02;8.65;;;3.95;;
71104;SDS011;58760;48.716;8.962;2023-04-06T12:58:37;7.40;;;4.10;;
71104;SDS011;58760;48.716;8.962;2023-04-06T13:01:05;7.20;;;3.70;;
71104;SDS011;58760;48.716;8.962;2023-04-06T13:03:31;7.07;;;3.83;;
71104;SDS011;58760;48.716;8.962;2023-04-06T13:05:57;8.07;;;3.97;;
71104;SDS011;58760;48.716;8.962;2023-04-06T13:08:24;9.38;;;4.45;;
71104;SDS011;58760;48.716;8.962;2023-04-06T13:10:51;6.22;;;3.38;;
71104;SDS011;58760;48.716;8.962;2023-04-06T13:13:24;7.25;;;3.75;;
71104;SDS011;58760;48.716;8.962;2023-04-06T13:15:51;7.20;;;4.25;;
71104;SDS011;58760;48.716;8.962;2023-04-06T13:18:17;8.32;;;4.10;;
71104;SDS011;58760;48.716;8.962;2023-04-06T13:23:08;9.18;;;4.07;;
71104;SDS011;58760;48.716;8.962;2023-04-06T13:27:59;9.02;;;4.53;;
71104;SDS011;58760;48.716;8.962;2023-04-06T13:32:50;10.18;;;4.82;;
71104;SDS011;58760;48.716;8.962;2023-04-06T13:35:16;8.93;;;4.57;;
71104;SDS011;58760;48.716;8.962;2023-04-06T13:37:42;8.63;;;4.05;;
71104;SDS011;58760;48.716;8.962;2023-04-06T13:40:09;8.40;;;4.55;;
71104;SDS011;58760;48.716;8.962;2023-04-06T13:42:35;9.10;;;4.20;;
71104;SDS011;58760;48.716;8.962;2023-04-06T13:45:00;6.65;;;3.92;;
71104;SDS011;58760;48.716;8.962;2023-04-06T13:49:52;9.48;;;4.10;;
71104;SDS011;58760;48.716;8.962;2023-04-06T13:52:20;7.93;;;4.20;;
71104;SDS011;58760;48.716;8.962;2023-04-06T13:54:45;7.20;;;3.45;;
71104;SDS011;58760;48.716;8.962;2023-04-06T13:59:37;7.13;;;3.55;;
71104;SDS011;58760;48.716;8.962;2023-04-06T14:02:04;7.78;;;3.63;;
71104;SDS011;58760;48.716;8.962;2023-04-06T14:04:30;9.48;;;3.85;;
71104;SDS011;58760;48.716;8.962;2023-04-06T14:06:56;8.30;;;3.92;;
71104;SDS011;58760;48.716;8.962;2023-04-06T14:09:25;8.20;;;4.40;;
71104;SDS011;58760;48.716;8.962;2023-04-06T14:11:51;6.95;;;3.45;;
71104;SDS011;58760;48.716;8.962;2023-04-06T14:16:42;9.65;;;4.60;;
71104;SDS011;58760;48.716;8.962;2023-04-06T14:19:11;6.95;;;3.80;;
71104;SDS011;58760;48.716;8.962;2023-04-06T14:21:39;7.47;;;3.70;;
71104;SDS011;58760;48.716;8.962;2023-04-06T14:24:08;8.75;;;3.78;;
71104;SDS011;58760;48.716;8.962;2023-04-06T14:26:37;8.43;;;4.07;;
71104;SDS011;58760;48.716;8.962;2023-04-06T14:29:04;7.25;;;3.50;;
71104;SDS011;58760;48.716;8.962;2023-04-06T14:31:30;7.60;;;3.60;;
71104;SDS011;58760;48.716;8.962;2023-04-06T14:33:55;8.57;;;3.97;;
71104;SDS011;58760;48.716;8.962;2023-04-06T14:36:21;9.90;;;4.10;;
71104;SDS011;58760;48.716;8.962;2023-04-06T14:38:47;8.65;;;4.13;;
71104;SDS011;58760;48.716;8.962;2023-04-06T14:41:16;7.95;;;3.80;;
71104;SDS011;58760;48.716;8.962;2023-04-06T14:43:45;7.43;;;3.75;;
71104;SDS011;58760;48.716;8.962;2023-04-06T14:46:11;9.90;;;3.80;;
71104;SDS011;58760;48.716;8.962;2023-04-06T14:48:36;7.32;;;4.00;;
71104;SDS011;58760;48.716;8.962;2023-04-06T14:51:02;8.18;;;4.07;;
71104;SDS011;58760;48.716;8.962;2023-04-06T14:53:28;10.32;;;4.40;;
71104;SDS011;58760;48.716;8.962;2023-04-06T14:55:54;8.05;;;3.90;;
71104;SDS011;58760;48.716;8.962;2023-04-06T15:00:46;9.38;;;4.38;;
71104;SDS011;58760;48.716;8.962;2023-04-06T15:03:12;10.25;;;4.00;;
71104;SDS011;58760;48.716;8.962;2023-04-06T15:05:37;9.18;;;4.20;;
71104;SDS011;58760;48.716;8.962;2023-04-06T15:08:03;6.97;;;3.88;;
71104;SDS011;58760;48.716;8.962;2023-04-06T15:10:32;8.07;;;3.78;;